Latest Coastal Weather Observations for Hobart

IDT60701

Issued at 5:55 pm EST Monday 1 September 2014 (issued every 10 minutes, with the page automatically refreshed every 10 minutes)

About coastal observations | Map of coastal stations | Coastal observations for TAS | Marine services | Other Formats
Station Details ID: 094029 Name: HOBART (ELLERSLIE ROAD) Lat: -42.89 Lon: 147.33 Height: 50.5 m
Data from the previous 72 hours. | See also: Recent months at Hobart
Date/Time
EST
Temp

°C
Wind Pressure Rain
since 9am
mm
Weather Cloud Vis
km
Sea
Height
m
Swell
Dir
 
Speed
knots
Gust
knots
hPa Trend Height
m
Period
s
Dir
01/05:30pm 8.9 SSW 10 15 1006.2 - 4.8 - - - - - - -
01/05:00pm 8.9 S 12 17 1005.7 - 4.6 - - - - - - -
01/04:30pm 9.3 S 11 17 1004.9 - 4.0 - - - - - - -
01/04:00pm 9.4 SSW 11 19 1004.2 - 3.8 - - - - - - -
01/03:30pm 9.6 SSW 12 21 1003.9 - 3.4 - - - - - - -
01/03:00pm 9.9 SSW 14 23 1003.2 - 3.0 Rain - - - - - -
01/02:30pm 10.0 SSW 17 28 1002.6 - 2.4 - - - - - - -
01/02:24pm 10.2 SSW 15 27 1002.4 - 2.2 - - - - - - -
01/02:00pm 10.5 SSW 14 19 1002.4 - 1.2 - - - - - - -
01/01:30pm 10.8 SSW 15 23 1001.6 - 0.4 - - - - - - -
01/01:18pm 11.2 SSW 15 23 1001.6 - 0.0 - - - - - - -
01/01:00pm 14.0 SW 8 13 1001.4 - 0.0 - - - - - - -
01/12:30pm 15.3 WNW 11 14 1001.1 - 0.0 - - - - - - -
01/12:00pm 17.0 NW 10 16 1000.7 - 0.0 - - - - - - -
01/11:33am 17.5 NNW 16 26 1000.5 - 0.0 - - - - - - -
01/11:30am 17.3 NNW 17 26 1000.5 - 0.0 - - - - - - -
01/11:00am 17.8 NNW 18 25 1000.7 - 0.0 - - - - - - -
01/10:30am 16.5 NNW 15 23 1000.9 - 0.0 - - - - - - -
01/10:00am 16.6 NNW 12 18 1001.3 - 0.0 - - - - - - -
01/09:30am 15.7 NNW 12 16 1001.9 - 0.0 - - - - - - -
01/09:00am 15.8 N 14 21 1002.2 - 0.0 - - - - - - -
01/08:30am 15.3 N 11 18 1002.5 - 0.0 - - - - - - -
01/08:00am 14.6 N 10 15 1002.9 - 0.0 - - - - - - -
01/07:30am 14.1 N 9 14 1003.0 - 0.0 - - - - - - -
01/07:00am 13.7 N 5 9 1003.4 - 0.0 - - - - - - -
01/06:30am 13.6 N 5 10 1003.5 - 0.0 - - - - - - -
01/06:00am 13.5 N 5 9 1003.7 - 0.0 - - - - - - -
01/05:30am 14.0 N 7 11 1003.9 - 0.0 - - - - - - -
01/05:00am 14.0 NNE 5 9 1003.9 - 0.0 - - - - - - -
01/04:30am 13.7 E 2 7 1004.1 - 0.0 - - - - - - -
01/04:00am 13.4 NNE 6 10 1004.4 - 0.0 - - - - - - -
01/03:30am 13.1 NNE 8 10 1004.7 - 0.0 - - - - - - -
01/03:00am 13.4 NNE 11 15 1005.0 - 0.0 - - - - - - -
01/02:30am 13.5 N 6 10 1005.4 - 0.0 - - - - - - -
01/02:00am 13.3 NNW 7 10 1006.0 - 0.0 - - - - - - -
01/01:30am 14.2 N 11 16 1006.5 - 0.0 - - - - - - -
01/01:00am 14.4 N 12 17 1007.0 - 0.0 - - - - - - -
01/12:30am 14.4 NNW 10 14 1007.5 - 0.0 - - - - - - -
01/12:00am 14.6 N 10 14 1007.6 - 0.0 - - - - - - -
 
Date/Time
EST
Temp

°C
Wind Pressure Rain
since 9am
mm
Weather Cloud Vis
km
Sea
Height
m
Swell
Dir
 
Speed
knots
Gust
knots
hPa Trend Height
m
Period
s
Dir
31/11:30pm 14.5 NNW 10 14 1007.8 - 0.0 - - - - - - -
31/11:00pm 14.6 N 13 18 1008.2 - 0.0 - - - - - - -
31/10:30pm 14.7 N 13 20 1008.6 - 0.0 - - - - - - -
31/10:00pm 14.7 NNW 13 18 1008.9 - 0.0 - - - - - - -
31/09:30pm 14.4 NNW 10 14 1009.3 - 0.0 - - - - - - -
31/09:00pm 14.7 NNW 14 20 1009.4 - 0.0 - - - - - - -
31/08:30pm 14.9 NNW 14 20 1009.6 - 0.0 - - - - - - -
31/08:00pm 15.0 NNW 11 16 1009.9 - 0.0 - - - - - - -
31/07:30pm 15.3 NNW 7 13 1010.2 - 0.0 - - - - - - -
31/07:00pm 15.5 NNW 9 14 1010.3 - 0.0 - - - - - - -
31/06:30pm 15.9 NNW 11 15 1010.3 - 0.0 - - - - - - -
31/06:00pm 16.1 NNW 8 13 1010.2 - 0.0 - - - - - - -
31/05:30pm 16.6 N 7 10 1010.3 - 0.0 - - - - - - -
31/05:00pm 17.3 N 10 14 1010.3 - 0.0 - - - - - - -
31/04:30pm 17.7 NNE 5 8 1010.3 - 0.0 - - - - - - -
31/04:00pm 18.6 NNW 6 9 1010.5 - 0.0 - - - - - - -
31/03:30pm 18.7 N 6 8 1010.9 - 0.0 - - - - - - -
31/03:00pm 18.9 NNE 6 8 1011.2 - 0.0 - - - - - - -
31/02:30pm 19.2 N 7 9 1011.5 - 0.0 - - - - - - -
31/02:00pm 18.1 NNW 7 10 1011.8 - 0.0 - - - - - - -
31/01:30pm 16.8 NNW 13 17 1012.1 - 0.0 - - - - - - -
31/01:00pm 16.6 N 11 16 1012.3 - 0.0 - - - - - - -
31/12:30pm 16.3 NNW 12 17 1012.9 - 0.0 - - - - - - -
31/12:00pm 16.6 N 15 20 1013.5 - 0.0 - - - - - - -
31/11:32am 16.6 NNW 17 27 1013.7 - 0.0 - - - - - - -
31/11:30am 16.2 NNW 16 24 1013.7 - 0.0 - - - - - - -
31/11:00am 15.1 NNW 19 26 1014.1 - 0.0 - - - - - - -
31/10:43am 14.9 N 15 26 1014.3 - 0.0 - - - - - - -
31/10:30am 14.5 N 14 21 1014.6 - 0.0 - - - - - - -
31/10:00am 13.9 N 13 19 1015.2 - 0.0 - - - - - - -
31/09:30am 13.0 N 14 21 1015.5 - 0.0 - - - - - - -
31/09:00am 11.1 NW 11 16 1015.9 - 0.0 - - - - - - -
31/08:30am 8.7 NNW 15 20 1016.2 - 0.0 - - - - - - -
31/08:00am 7.7 NNW 13 17 1016.5 - 0.0 - - - - - - -
31/07:30am 7.0 NNW 11 16 1016.6 - 0.0 - - - - - - -
31/07:00am 7.2 N 13 17 1016.4 - 0.0 - - - - - - -
31/06:30am 7.6 N 12 17 1016.3 - 0.0 - - - - - - -
31/06:00am 7.8 N 15 20 1016.5 - 0.0 - - - - - - -
31/05:30am 7.6 N 9 15 1016.5 - 0.0 - - - - - - -
31/05:00am 7.8 WNW 9 15 1016.7 - 0.0 - - - - - - -
31/04:57am 7.8 WNW 10 14 1016.8 - 0.0 - - - - - - -
31/04:30am 8.6 NNW 21 26 1016.3 - 0.0 - - - - - - -
31/04:00am 8.4 NNW 17 22 1017.0 - 0.0 - - - - - - -
31/03:30am 8.3 NW 15 21 1017.4 - 0.0 - - - - - - -
31/03:00am 8.7 N 14 20 1017.6 - 0.0 - - - - - - -
31/02:30am 9.6 NNW 18 24 1017.8 - 0.0 - - - - - - -
31/02:00am 8.9 NNW 13 18 1018.6 - 0.0 - - - - - - -
31/01:30am 8.7 NNW 10 15 1018.9 - 0.0 - - - - - - -
31/01:00am 8.8 NNW 9 16 1019.2 - 0.0 - - - - - - -
31/12:30am 9.1 N 9 13 1019.6 - 0.0 - - - - - - -
31/12:00am 9.7 N 10 14 1019.8 - 0.0 - - - - - - -
 
Date/Time
EST
Temp

°C
Wind Pressure Rain
since 9am
mm
Weather Cloud Vis
km
Sea
Height
m
Swell
Dir
 
Speed
knots
Gust
knots
hPa Trend Height
m
Period
s
Dir
30/11:30pm 10.5 NNW 11 16 1020.2 - 0.0 - - - - - - -
30/11:00pm 11.2 N 11 16 1020.7 - 0.0 - - - - - - -
30/10:30pm 11.1 N 11 15 1021.1 - 0.0 - - - - - - -
30/10:00pm 11.5 NNW 12 16 1021.6 - 0.0 - - - - - - -
30/09:30pm 11.8 N 8 12 1021.9 - 0.0 - - - - - - -
30/09:00pm 12.2 NNW 8 10 1021.9 - 0.0 - - - - - - -
30/08:30pm 13.0 N 7 11 1021.9 - 0.0 - - - - - - -
30/08:00pm 11.7 N 6 8 1022.0 - 0.0 - - - - - - -
30/07:30pm 12.0 N 3 4 1022.0 - 0.0 - - - - - - -
30/07:00pm 13.0 NW 5 7 1022.1 - 0.0 - - - - - - -
30/06:30pm 14.4 N 7 11 1022.0 - 0.0 - - - - - - -
30/06:00pm 14.9 N 7 10 1022.3 - 0.0 - - - - - - -
30/05:30pm 15.5 N 6 9 1022.3 - 0.0 - - - - - - -
30/05:00pm 15.9 NNE 7 11 1022.5 - 0.0 - - - - - - -
30/04:30pm 16.3 N 8 12 1022.7 - 0.0 - - - - - - -
30/04:00pm 16.9 NNE 8 16 1022.7 - 0.0 - - - - - - -
30/03:30pm 17.5 N 7 8 1022.9 - 0.0 - - - - - - -
30/03:00pm 17.6 NNE 7 10 1023.3 - 0.0 - - - - - - -
30/02:30pm 17.4 NNE 7 11 1023.6 - 0.0 - - - - - - -
30/02:00pm 18.0 N 9 12 1023.9 - 0.0 - - - - - - -
30/01:30pm 17.9 NW 11 16 1024.3 - 0.0 - - - - - - -
30/01:00pm 17.2 NNW 11 15 1024.7 - 0.0 - - - - - - -
30/12:30pm 16.2 NNW 11 16 1025.3 - 0.0 - - - - - - -
30/12:00pm 15.7 N 11 16 1025.8 - 0.0 - - - - - - -
30/11:30am 15.6 NNW 12 17 1026.3 - 0.0 - - - - - - -
30/11:00am 13.8 NNW 12 15 1026.8 - 0.0 - - - - - - -
30/10:30am 12.2 NW 12 16 1027.2 - 0.0 - - - - - - -
30/10:00am 11.0 NNW 12 17 1027.5 - 0.0 - - - - - - -
30/09:30am 9.9 NNW 14 19 1027.8 - 0.0 - - - - - - -
30/09:00am 9.1 NNW 12 17 1028.1 - 0.0 - - - - - - -
30/08:30am 7.9 NNW 10 16 1028.6 - 0.0 - - - - - - -
30/08:00am 7.5 NNW 11 14 1028.6 - 0.0 - - - - - - -
30/07:30am 7.6 NNW 10 14 1028.7 - 0.0 - - - - - - -
30/07:00am 7.0 NW 10 15 1028.5 - 0.0 - - - - - - -
30/06:30am 6.9 NW 9 13 1028.2 - 0.0 - - - - - - -
30/06:00am 7.0 NW 9 11 1028.3 - 0.0 - - - - - - -
30/05:30am 6.9 NNW 7 11 1028.3 - 0.0 - - - - - - -
30/05:00am 7.2 NNW 11 15 1028.2 - 0.0 - - - - - - -
30/04:30am 7.4 NW 8 11 1028.5 - 0.0 - - - - - - -
30/04:00am 7.6 NNW 9 14 1028.5 - 0.0 - - - - - - -
30/03:30am 8.0 NNW 8 11 1028.5 - 0.0 - - - - - - -
30/03:00am 8.1 NNW 7 10 1028.7 - 0.0 - - - - - - -
30/02:30am 8.3 NW 7 10 1028.8 - 0.0 - - - - - - -
30/02:00am 8.1 NW 6 8 1029.0 - 0.0 - - - - - - -
30/01:30am 8.5 NNW 7 9 1029.2 - 0.0 - - - - - - -
30/01:00am 7.9 NW 5 7 1029.4 - 0.0 - - - - - - -
30/12:30am 7.6 NNW 3 4 1029.5 - 0.0 - - - - - - -
30/12:00am 8.1 NW 3 3 1029.5 - 0.0 - - - - - - -
 
Date/Time
EST
Temp

°C
Wind Pressure Rain
since 9am
mm
Weather Cloud Vis
km
Sea
Height
m
Swell
Dir
 
Speed
knots
Gust
knots
hPa Trend Height
m
Period
s
Dir
29/11:30pm 8.4 NNW 1 3 1029.6 - 0.0 - - - - - - -
29/11:00pm 8.3 W 3 5 1029.7 - 0.0 - - - - - - -
29/10:30pm 8.7 NW 2 4 1029.8 - 0.0 - - - - - - -
29/10:00pm 8.9 W 4 5 1029.9 - 0.0 - - - - - - -
29/09:30pm 9.2 WNW 3 4 1029.8 - 0.0 - - - - - - -
29/09:00pm 9.6 CALM 0 0 1029.9 - 0.0 - - - - - - -
29/08:30pm 10.1 CALM 0 0 1029.9 - 0.0 - - - - - - -
29/08:00pm 10.3 SW 4 5 1029.7 - 0.0 - - - - - - -
29/07:30pm 11.0 WSW 6 8 1029.6 - 0.0 - - - - - - -
29/07:00pm 11.2 WSW 6 8 1029.6 - 0.0 - - - - - - -
29/06:30pm 11.6 WSW 7 9 1029.7 - 0.0 - - - - - - -
29/06:00pm 12.2 WSW 7 8 1029.4 - 0.0 - - - - - - -

Other Formats:

Comma delimited format used in spreadsheet applications
http://www.bom.gov.au/fwo/IDT60701/IDT60701.94970.axf

JavaScript Object Notation format (JSON) in row-major order
http://www.bom.gov.au/fwo/IDT60701/IDT60701.94970.json